createdAt,value
2022-09-23T00:00:27.300Z,99407.47
2022-09-23T00:03:13.418Z,99414.19
2022-09-23T00:06:04.398Z,99408.66
2022-09-23T00:08:50.609Z,99403.88
2022-09-23T00:11:36.475Z,99404.31
2022-09-23T00:14:21.739Z,99400.75
2022-09-23T00:17:07.326Z,99393.63
2022-09-23T00:19:54.198Z,99390.47
2022-09-23T00:22:39.935Z,99398.00
2022-09-23T00:25:25.314Z,99390.09
2022-09-23T00:28:10.636Z,99389.28
2022-09-23T00:30:56.396Z,99382.56
2022-09-23T00:33:42.289Z,99387.31
2022-09-23T00:36:29.142Z,99391.69
2022-09-23T00:39:14.840Z,99382.56
2022-09-23T00:42:00.128Z,99397.63
2022-09-23T00:44:56.209Z,99384.16
2022-09-23T00:47:48.177Z,99380.19
2022-09-23T00:50:40.329Z,99381.78
2022-09-23T00:53:26.765Z,99378.63
2022-09-23T00:56:13.982Z,99381.78
2022-09-23T00:59:01.209Z,99379.00
2022-09-23T01:01:49.715Z,99377.03
2022-09-23T01:04:36.622Z,99380.19
2022-09-23T01:07:22.029Z,99375.06
2022-09-23T01:10:08.836Z,99373.06
2022-09-23T01:13:16.042Z,99364.75
2022-09-23T01:16:13.440Z,99363.97
2022-09-23T01:19:20.428Z,99353.31
2022-09-23T01:22:18.602Z,99357.22
2022-09-23T01:25:10.073Z,99362.81
2022-09-23T01:28:10.813Z,99354.13
2022-09-23T01:31:08.517Z,99346.59
2022-09-23T01:34:06.708Z,99349.75
2022-09-23T01:36:59.343Z,99342.63
2022-09-23T01:40:01.835Z,99333.16
2022-09-23T01:42:54.027Z,99337.50
2022-09-23T01:45:44.360Z,99336.69
2022-09-23T01:48:52.573Z,99331.97
2022-09-23T01:51:42.754Z,99330.34
2022-09-23T01:54:43.908Z,99333.13
2022-09-23T01:57:38.984Z,99326.81
2022-09-23T02:00:25.581Z,99326.81
2022-09-23T02:03:17.799Z,99320.47
2022-09-23T02:06:11.334Z,99319.28
2022-09-23T02:09:02.048Z,99324.38
2022-09-23T02:11:52.518Z,99319.28
2022-09-23T02:14:49.001Z,99316.13
2022-09-23T02:17:54.327Z,99319.28
2022-09-23T02:20:40.247Z,99313.75
2022-09-23T02:23:31.895Z,99309.00
2022-09-23T02:26:29.543Z,99316.13
2022-09-23T02:29:27.542Z,99310.19
2022-09-23T02:32:39.085Z,99304.66
2022-09-23T02:35:34.716Z,99305.44
2022-09-23T02:38:32.189Z,99300.28
2022-09-23T02:41:28.141Z,99288.44
2022-09-23T02:44:18.642Z,99293.19
2022-09-23T02:47:04.020Z,99293.19
2022-09-23T02:49:49.417Z,99293.19
2022-09-23T02:52:36.732Z,99291.59
2022-09-23T02:55:25.451Z,99286.06
2022-09-23T02:58:14.063Z,99283.28
2022-09-23T03:01:21.814Z,99288.81
2022-09-23T03:04:07.117Z,99283.72
2022-09-23T03:07:06.330Z,99280.66
2022-09-23T03:10:09.636Z,99281.44
2022-09-23T03:13:14.700Z,99277.88
2022-09-23T03:16:11.902Z,99274.31
2022-09-23T03:19:03.761Z,99271.97
2022-09-23T03:22:01.027Z,99268.81
2022-09-23T03:24:53.297Z,99262.88
2022-09-23T03:27:42.405Z,99256.94
2022-09-23T03:30:29.902Z,99260.13
2022-09-23T03:33:18.647Z,99252.59
2022-09-23T03:36:26.917Z,99255.38
2022-09-23T03:39:24.174Z,99247.88
2022-09-23T03:42:31.813Z,99249.06
2022-09-23T03:45:21.971Z,99244.34
2022-09-23T03:48:08.752Z,99254.19
2022-09-23T03:50:54.292Z,99247.09
2022-09-23T03:53:39.756Z,99249.81
2022-09-23T03:56:25.061Z,99245.88
2022-09-23T03:59:12.038Z,99251.41
2022-09-23T04:01:59.813Z,99250.63
2022-09-23T04:04:45.652Z,99243.88
2022-09-23T04:07:31.449Z,99247.81
2022-09-23T04:10:16.683Z,99243.44
2022-09-23T04:13:01.912Z,99237.47
2022-09-23T04:15:50.083Z,99234.28
2022-09-23T04:18:35.435Z,99237.81
2022-09-23T04:21:21.338Z,99235.03
2022-09-23T04:24:08.008Z,99226.72
2022-09-23T04:26:55.412Z,99223.94
2022-09-23T04:29:40.942Z,99231.03
2022-09-23T04:32:26.285Z,99225.09
2022-09-23T04:35:11.504Z,99225.03
2022-09-23T04:37:56.894Z,99228.63
2022-09-23T04:40:42.113Z,99223.47
2022-09-23T04:43:27.387Z,99229.72
2022-09-23T04:46:15.083Z,99221.03
2022-09-23T04:49:00.700Z,99222.22
2022-09-23T04:51:47.613Z,99217.84
2022-09-23T04:54:33.096Z,99222.59
2022-09-23T04:57:18.775Z,99220.63
2022-09-23T05:00:05.422Z,99217.41
2022-09-23T05:02:51.352Z,99217.41
2022-09-23T05:05:36.632Z,99215.03
2022-09-23T05:08:22.162Z,99216.19
2022-09-23T05:11:09.249Z,99213.00
2022-09-23T05:13:55.107Z,99212.59
2022-09-23T05:16:40.907Z,99216.53
2022-09-23T05:19:26.365Z,99218.94
2022-09-23T05:22:11.787Z,99224.47
2022-09-23T05:24:59.851Z,99226.44
2022-09-23T05:27:45.072Z,99228.00
2022-09-23T05:30:30.415Z,99223.28
2022-09-23T05:33:15.516Z,99226.41
2022-09-23T05:36:01.491Z,99228.78
2022-09-23T05:38:48.640Z,99230.75
2022-09-23T05:41:34.100Z,99231.13
2022-09-23T05:44:19.643Z,99222.03
2022-09-23T05:47:05.503Z,99225.53
2022-09-23T05:49:59.673Z,99216.81
2022-09-23T05:52:46.088Z,99222.00
2022-09-23T05:55:31.546Z,99212.13
2022-09-23T05:58:16.943Z,99227.97
2022-09-23T06:01:09.551Z,99217.66
2022-09-23T06:03:56.398Z,99222.38
2022-09-23T06:06:42.735Z,99223.13
2022-09-23T06:09:30.825Z,99213.22
2022-09-23T06:12:20.090Z,99215.25
2022-09-23T06:15:06.312Z,99218.75
2022-09-23T06:17:51.432Z,99214.41
2022-09-23T06:20:37.430Z,99220.72
2022-09-23T06:23:26.630Z,99219.09
2022-09-23T06:26:14.252Z,99213.97
2022-09-23T06:29:01.593Z,99215.94
2022-09-23T06:31:49.753Z,99220.34
2022-09-23T06:34:47.442Z,99218.72
2022-09-23T06:37:36.066Z,99212.41
2022-09-23T06:40:23.086Z,99217.94
2022-09-23T06:43:08.600Z,99215.56
2022-09-23T06:45:55.981Z,99214.78
2022-09-23T06:48:46.144Z,99216.34
2022-09-23T06:51:32.211Z,99218.28
2022-09-23T06:54:17.744Z,99208.78
2022-09-23T06:57:03.054Z,99214.34
2022-09-23T06:59:48.306Z,99208.78
2022-09-23T07:02:33.753Z,99212.41
2022-09-23T07:05:19.044Z,99212.78
2022-09-23T07:08:09.738Z,99211.97
2022-09-23T07:11:00.151Z,99216.34
2022-09-23T07:13:45.961Z,99208.38
2022-09-23T07:16:32.895Z,99209.56
2022-09-23T07:19:18.279Z,99214.66
2022-09-23T07:22:03.775Z,99215.41
2022-09-23T07:24:49.095Z,99215.00
2022-09-23T07:27:34.377Z,99215.00
2022-09-23T07:30:25.125Z,99214.16
2022-09-23T07:33:27.083Z,99214.59
2022-09-23T07:36:18.728Z,99213.41
2022-09-23T07:39:04.035Z,99207.88
2022-09-23T07:41:49.799Z,99212.22
2022-09-23T07:44:35.645Z,99209.81
2022-09-23T07:47:21.272Z,99209.03
2022-09-23T07:50:11.536Z,99208.59
2022-09-23T07:52:57.189Z,99212.16
2022-09-23T07:55:42.362Z,99205.44
2022-09-23T07:58:27.791Z,99213.34
2022-09-23T08:01:13.766Z,99212.50
2022-09-23T08:04:06.931Z,99214.91
2022-09-23T08:06:55.417Z,99216.06
2022-09-23T08:09:43.364Z,99218.06
2022-09-23T08:12:32.154Z,99219.59
2022-09-23T08:15:17.694Z,99216.44
2022-09-23T08:18:03.224Z,99210.47
2022-09-23T08:20:48.463Z,99221.13
2022-09-23T08:23:33.969Z,99216.44
2022-09-23T08:26:22.067Z,99211.66
2022-09-23T08:29:10.202Z,99218.41
2022-09-23T08:31:56.390Z,99212.47
2022-09-23T08:34:42.543Z,99211.66
2022-09-23T08:37:27.880Z,99208.09
2022-09-23T08:40:13.779Z,99200.16
2022-09-23T08:43:00.140Z,99200.94
2022-09-23T08:45:46.352Z,99207.63
2022-09-23T08:48:42.266Z,99200.53
2022-09-23T08:51:41.298Z,99196.97
2022-09-23T08:54:31.202Z,99197.75
2022-09-23T08:57:34.043Z,99196.16
2022-09-23T09:00:28.682Z,99191.06
2022-09-23T09:03:24.829Z,99189.47
2022-09-23T09:06:19.092Z,99184.75
2022-09-23T09:09:09.471Z,99185.09
2022-09-23T09:12:05.120Z,99186.28
2022-09-23T09:14:57.109Z,99175.22
2022-09-23T09:18:11.313Z,99184.31
2022-09-23T09:20:59.889Z,99184.31
2022-09-23T09:24:02.515Z,99185.94
2022-09-23T09:26:48.093Z,99191.06
2022-09-23T09:29:39.651Z,99185.09
2022-09-23T09:32:47.314Z,99181.13
2022-09-23T09:35:40.853Z,99183.91
2022-09-23T09:38:27.583Z,99187.03
2022-09-23T09:41:18.291Z,99171.59
2022-09-23T09:44:21.147Z,99166.47
2022-09-23T09:47:17.291Z,99162.06
2022-09-23T09:50:08.531Z,99162.91
2022-09-23T09:53:21.855Z,99164.88
2022-09-23T09:56:16.546Z,99166.47
2022-09-23T09:59:10.944Z,99157.34
2022-09-23T10:02:21.574Z,99156.16
2022-09-23T10:05:07.629Z,99157.78
2022-09-23T10:07:54.449Z,99154.56
2022-09-23T10:10:54.612Z,99151.47
2022-09-23T10:13:39.718Z,99147.47
2022-09-23T10:16:25.420Z,99147.47
2022-09-23T10:19:27.745Z,99141.94
2022-09-23T10:22:21.017Z,99150.63
2022-09-23T10:25:36.536Z,99141.16
2022-09-23T10:28:44.118Z,99145.91
2022-09-23T10:31:32.317Z,99139.53
2022-09-23T10:34:29.227Z,99145.84
2022-09-23T10:37:32.275Z,99137.94
2022-09-23T10:40:49.126Z,99135.16
2022-09-23T10:44:11.453Z,99135.53
2022-09-23T10:47:20.782Z,99122.88
2022-09-23T10:50:23.760Z,99117.72
2022-09-23T10:53:18.304Z,99124.44
2022-09-23T10:56:06.642Z,99111.78
2022-09-23T10:58:52.049Z,99112.94
2022-09-23T11:02:02.119Z,99109.75
2022-09-23T11:04:52.844Z,99104.22
2022-09-23T11:08:18.333Z,99105.41
2022-09-23T11:11:11.715Z,99099.84
2022-09-23T11:14:24.460Z,99096.72
2022-09-23T11:17:22.261Z,99098.28
2022-09-23T11:20:31.646Z,99098.28
2022-09-23T11:23:26.536Z,99090.34
2022-09-23T11:26:33.260Z,99080.44
2022-09-23T11:29:30.961Z,99087.94
2022-09-23T11:32:39.668Z,99091.50
2022-09-23T11:35:38.099Z,99081.94
2022-09-23T11:38:45.861Z,99070.44
2022-09-23T11:41:35.402Z,99070.03
2022-09-23T11:44:29.406Z,99076.38
2022-09-23T11:47:27.453Z,99068.81
2022-09-23T11:50:25.909Z,99068.03
2022-09-23T11:53:40.641Z,99063.28
2022-09-23T11:56:49.267Z,99052.97
2022-09-23T11:59:42.831Z,99050.56
2022-09-23T12:02:33.625Z,99048.63
2022-09-23T12:05:24.508Z,99043.84
2022-09-23T12:08:23.314Z,99052.13
2022-09-23T12:11:20.708Z,99045.06
2022-09-23T12:14:23.808Z,99047.41
2022-09-23T12:17:15.640Z,99039.53
2022-09-23T12:20:19.492Z,99036.81
2022-09-23T12:23:23.702Z,99036.03
2022-09-23T12:26:17.276Z,99033.13
2022-09-23T12:29:05.667Z,99034.28
2022-09-23T12:31:51.166Z,99028.34
2022-09-23T12:34:49.129Z,99031.56
2022-09-23T12:37:38.992Z,99030.84
2022-09-23T12:40:34.677Z,99030.44
2022-09-23T12:43:34.920Z,99030.84
2022-09-23T12:46:28.148Z,99022.16
2022-09-23T12:49:37.229Z,99022.16
2022-09-23T12:52:25.360Z,99021.31
2022-09-23T12:55:23.272Z,99024.44
2022-09-23T12:58:57.611Z,99022.03
2022-09-23T13:01:44.382Z,99006.53
2022-09-23T13:05:05.477Z,99013.31
2022-09-23T13:07:51.056Z,99004.97
2022-09-23T13:10:54.674Z,98999.06
2022-09-23T13:13:45.730Z,98985.94
2022-09-23T13:16:34.930Z,98989.06
2022-09-23T13:19:40.950Z,98987.44
2022-09-23T13:22:54.306Z,98984.66
2022-09-23T13:25:43.693Z,98982.66
2022-09-23T13:28:34.033Z,98977.53
2022-09-23T13:31:21.249Z,98970.44
2022-09-23T13:34:11.502Z,98974.34
2022-09-23T13:36:56.754Z,98970.78
2022-09-23T13:39:42.038Z,98976.75
2022-09-23T13:42:30.255Z,98958.06
2022-09-23T13:45:19.158Z,98958.56
2022-09-23T13:48:08.429Z,98956.97
2022-09-23T13:50:54.703Z,98953.00
2022-09-23T13:53:40.411Z,98953.38
2022-09-23T13:56:28.531Z,98952.56
2022-09-23T13:59:30.229Z,98942.28
2022-09-23T14:02:18.783Z,98945.03
2022-09-23T14:05:12.550Z,98946.25
2022-09-23T14:07:59.661Z,98944.25
2022-09-23T14:10:48.099Z,98939.56
2022-09-23T14:13:42.568Z,98930.81
2022-09-23T14:16:29.892Z,98930.09
2022-09-23T14:19:20.768Z,98935.63
2022-09-23T14:22:09.249Z,98931.72
2022-09-23T14:24:59.019Z,98923.31
2022-09-23T14:27:47.165Z,98921.41
2022-09-23T14:30:32.659Z,98916.63
2022-09-23T14:33:23.468Z,98919.00
2022-09-23T14:36:34.603Z,98913.00
2022-09-23T14:39:20.389Z,98913.44
2022-09-23T14:42:07.327Z,98903.91
2022-09-23T14:44:52.874Z,98904.34
2022-09-23T14:47:42.015Z,98906.63
2022-09-23T14:50:37.992Z,98899.44
2022-09-23T14:53:23.222Z,98898.22
2022-09-23T14:56:11.450Z,98901.81
2022-09-23T14:59:00.011Z,98898.22
2022-09-23T15:01:45.751Z,98899.03
2022-09-23T15:04:32.604Z,98898.22
2022-09-23T15:07:20.823Z,98892.25
2022-09-23T15:10:37.577Z,98884.72
2022-09-23T15:13:36.760Z,98890.34
2022-09-23T15:16:27.597Z,98888.00
2022-09-23T15:19:19.859Z,98883.16
2022-09-23T15:22:08.529Z,98889.56
2022-09-23T15:25:08.311Z,98892.34
2022-09-23T15:27:58.045Z,98889.22
2022-09-23T15:30:43.631Z,98887.22
2022-09-23T15:33:29.926Z,98892.66
2022-09-23T15:36:19.518Z,98886.44
2022-09-23T15:39:08.592Z,98876.16
2022-09-23T15:41:53.810Z,98882.94
2022-09-23T15:44:39.562Z,98884.94
2022-09-23T15:47:25.354Z,98878.59
2022-09-23T15:50:13.629Z,98874.63
2022-09-23T15:52:59.500Z,98871.84
2022-09-23T15:55:45.442Z,98871.06
2022-09-23T15:58:30.927Z,98867.50
2022-09-23T16:01:37.166Z,98873.03
2022-09-23T16:04:23.029Z,98865.84
2022-09-23T16:07:16.223Z,98861.84
2022-09-23T16:10:01.440Z,98857.88
2022-09-23T16:12:47.426Z,98854.75
2022-09-23T16:15:33.772Z,98856.34
2022-09-23T16:18:19.280Z,98859.47
2022-09-23T16:21:06.473Z,98849.56
2022-09-23T16:23:53.490Z,98858.69
2022-09-23T16:26:40.544Z,98852.69
2022-09-23T16:29:27.020Z,98856.28
2022-09-23T16:32:12.834Z,98855.56
2022-09-23T16:34:58.536Z,98857.97
2022-09-23T16:37:47.021Z,98858.81
2022-09-23T16:40:32.678Z,98850.84
2022-09-23T16:43:19.567Z,98854.84
2022-09-23T16:46:12.184Z,98859.63
2022-09-23T16:48:58.989Z,98858.03
2022-09-23T16:51:44.293Z,98853.25
2022-09-23T16:54:29.970Z,98860.38
2022-09-23T16:57:15.547Z,98851.66
2022-09-23T17:00:19.414Z,98851.97
2022-09-23T17:03:23.624Z,98854.75
2022-09-23T17:06:13.094Z,98854.75
2022-09-23T17:08:58.898Z,98856.41
2022-09-23T17:11:48.239Z,98847.59
2022-09-23T17:14:35.086Z,98845.25
2022-09-23T17:17:21.837Z,98853.94
2022-09-23T17:20:09.359Z,98853.84
2022-09-23T17:22:56.250Z,98849.22
2022-09-23T17:25:47.838Z,98854.69
2022-09-23T17:28:35.883Z,98851.56
2022-09-23T17:31:25.128Z,98853.16
2022-09-23T17:34:12.978Z,98851.22
2022-09-23T17:37:05.781Z,98850.78
2022-09-23T17:39:52.307Z,98850.00
2022-09-23T17:42:41.720Z,98846.44
2022-09-23T17:45:29.428Z,98839.69
2022-09-23T17:48:20.393Z,98852.44
2022-09-23T17:51:14.437Z,98857.13
2022-09-23T17:53:59.798Z,98853.16
2022-09-23T17:56:46.587Z,98853.22
2022-09-23T17:59:31.991Z,98855.56
2022-09-23T18:02:20.927Z,98849.66
2022-09-23T18:05:06.641Z,98856.75
2022-09-23T18:07:52.101Z,98865.44
2022-09-23T18:10:37.380Z,98854.75
2022-09-23T18:13:23.691Z,98854.75
2022-09-23T18:16:10.264Z,98857.97
2022-09-23T18:18:58.195Z,98859.16
2022-09-23T18:21:51.750Z,98853.06
2022-09-23T18:24:41.103Z,98849.38
2022-09-23T18:27:26.716Z,98853.41
2022-09-23T18:30:12.800Z,98850.59
2022-09-23T18:32:59.792Z,98847.81
2022-09-23T18:35:45.299Z,98855.28
2022-09-23T18:38:30.733Z,98851.72
2022-09-23T18:41:16.916Z,98855.28
2022-09-23T18:44:04.576Z,98855.38
2022-09-23T18:46:55.656Z,98854.56
2022-09-23T18:50:03.102Z,98851.44
2022-09-23T18:52:53.586Z,98847.09
2022-09-23T18:55:40.835Z,98855.84
2022-09-23T18:58:26.488Z,98857.88
2022-09-23T19:01:12.777Z,98852.44
2022-09-23T19:04:00.337Z,98853.63
2022-09-23T19:06:46.745Z,98843.03
2022-09-23T19:09:32.188Z,98840.63
2022-09-23T19:12:18.198Z,98846.56
2022-09-23T19:15:04.938Z,98839.91
2022-09-23T19:17:50.531Z,98835.22
2022-09-23T19:20:36.269Z,98836.84
2022-09-23T19:23:21.851Z,98842.44
2022-09-23T19:26:12.913Z,98839.25
2022-09-23T19:29:00.417Z,98851.19
2022-09-23T19:31:45.915Z,98845.72
2022-09-23T19:34:32.513Z,98846.19
2022-09-23T19:37:18.373Z,98848.69
2022-09-23T19:40:04.659Z,98830.53
2022-09-23T19:42:55.090Z,98840.41
2022-09-23T19:45:42.962Z,98840.53
2022-09-23T19:48:28.517Z,98830.28
2022-09-23T19:51:14.203Z,98835.38
2022-09-23T19:54:01.200Z,98834.25
2022-09-23T19:56:48.710Z,98836.66
2022-09-23T19:59:34.252Z,98832.81
2022-09-23T20:02:19.818Z,98836.75
2022-09-23T20:05:06.104Z,98834.00
2022-09-23T20:07:52.007Z,98827.28
2022-09-23T20:10:39.738Z,98836.00
2022-09-23T20:13:25.101Z,98826.84
2022-09-23T20:16:14.178Z,98830.06
2022-09-23T20:19:00.841Z,98827.69
2022-09-23T20:22:05.856Z,98822.50
2022-09-23T20:24:58.798Z,98828.41
2022-09-23T20:27:49.464Z,98820.88
2022-09-23T20:30:38.654Z,98819.25
2022-09-23T20:33:24.206Z,98817.63
2022-09-23T20:36:12.924Z,98815.22
2022-09-23T20:39:00.511Z,98811.28
2022-09-23T20:41:46.129Z,98818.38
2022-09-23T20:44:32.094Z,98822.28
2022-09-23T20:47:18.633Z,98816.69
2022-09-23T20:50:04.219Z,98808.38
2022-09-23T20:52:49.694Z,98805.97
2022-09-23T20:55:35.040Z,98806.31
2022-09-23T20:58:26.978Z,98804.75
2022-09-23T21:01:12.366Z,98813.41
2022-09-23T21:03:57.593Z,98808.19
2022-09-23T21:06:42.952Z,98808.97
2022-09-23T21:09:30.941Z,98797.56
2022-09-23T21:12:16.487Z,98802.31
2022-09-23T21:15:02.482Z,98794.50
2022-09-23T21:17:47.614Z,98792.88
2022-09-23T21:20:33.040Z,98789.31
2022-09-23T21:23:18.484Z,98790.97
2022-09-23T21:26:06.638Z,98788.25
2022-09-23T21:28:58.302Z,98786.72
2022-09-23T21:31:43.883Z,98792.69
2022-09-23T21:34:30.094Z,98781.59
2022-09-23T21:37:15.298Z,98790.72
2022-09-23T21:40:19.193Z,98793.53
2022-09-23T21:43:04.277Z,98787.22
2022-09-23T21:45:56.963Z,98788.75
2022-09-23T21:48:43.204Z,98775.81
2022-09-23T21:51:30.808Z,98785.72
2022-09-23T21:54:17.060Z,98781.00
2022-09-23T21:57:02.251Z,98778.22
2022-09-23T21:59:48.032Z,98781.84
2022-09-23T22:02:33.836Z,98787.00
2022-09-23T22:05:19.586Z,98781.53
2022-09-23T22:08:05.240Z,98784.75
2022-09-23T22:10:50.461Z,98777.72
2022-09-23T22:13:35.757Z,98776.09
2022-09-23T22:16:20.979Z,98773.81
2022-09-23T22:19:07.158Z,98769.44
2022-09-23T22:21:53.696Z,98770.31
2022-09-23T22:24:44.176Z,98771.09
2022-09-23T22:27:29.907Z,98770.31
2022-09-23T22:30:33.832Z,98768.38
2022-09-23T22:33:18.985Z,98761.28
2022-09-23T22:36:04.473Z,98760.53
2022-09-23T22:38:59.041Z,98754.22
2022-09-23T22:41:44.852Z,98753.47
2022-09-23T22:44:30.642Z,98755.00
2022-09-23T22:47:20.209Z,98756.63
2022-09-23T22:50:08.208Z,98744.78
2022-09-23T22:52:53.558Z,98741.28
2022-09-23T22:55:38.733Z,98739.28
2022-09-23T22:58:32.097Z,98741.28
2022-09-23T23:01:18.027Z,98749.59
2022-09-23T23:04:04.182Z,98738.16
2022-09-23T23:06:49.908Z,98732.97
2022-09-23T23:09:35.527Z,98743.31
2022-09-23T23:12:21.311Z,98742.91
2022-09-23T23:15:09.331Z,98738.56
2022-09-23T23:17:59.253Z,98737.78
2022-09-23T23:20:45.630Z,98736.25
2022-09-23T23:23:31.097Z,98731.88
2022-09-23T23:26:22.253Z,98725.97
2022-09-23T23:29:07.291Z,98724.44
2022-09-23T23:31:52.556Z,98725.22
2022-09-23T23:34:37.757Z,98729.97
2022-09-23T23:37:22.919Z,98732.38
2022-09-23T23:40:08.644Z,98727.19
2022-09-23T23:42:54.458Z,98729.25
2022-09-23T23:45:39.970Z,98741.09
2022-09-23T23:48:25.725Z,98724.47
2022-09-23T23:51:11.685Z,98725.25
2022-09-23T23:53:59.675Z,98720.53
2022-09-23T23:56:45.181Z,98722.13
2022-09-23T23:59:31.092Z,98719.78
